createdAt,value
2019-05-12T00:00:21.488Z,11.00
2019-05-12T00:01:25.844Z,11.00
2019-05-12T00:02:30.491Z,11.00
2019-05-12T00:03:34.683Z,11.00
2019-05-12T00:04:39.549Z,11.00
2019-05-12T00:05:43.779Z,11.00
2019-05-12T00:06:48.491Z,11.00
2019-05-12T00:07:52.909Z,10.90
2019-05-12T00:08:57.947Z,10.90
2019-05-12T00:10:02.543Z,11.00
2019-05-12T00:11:08.982Z,11.00
2019-05-12T00:12:13.415Z,11.00
2019-05-12T00:13:19.014Z,11.00
2019-05-12T00:14:23.860Z,11.00
2019-05-12T00:15:28.601Z,11.00
2019-05-12T00:16:32.966Z,11.00
2019-05-12T00:17:38.713Z,11.00
2019-05-12T00:18:43.605Z,10.90
2019-05-12T00:19:48.261Z,11.00
2019-05-12T00:20:52.653Z,10.90
2019-05-12T00:21:58.749Z,10.80
2019-05-12T00:23:20.814Z,10.90
2019-05-12T00:24:12.126Z,10.90
2019-05-12T00:25:18.266Z,10.90
2019-05-12T00:26:23.280Z,10.90
2019-05-12T00:27:28.458Z,10.80
2019-05-12T00:28:33.308Z,10.80
2019-05-12T00:29:37.841Z,10.80
2019-05-12T00:30:45.725Z,10.80
2019-05-12T00:31:49.946Z,10.80
2019-05-12T00:32:54.658Z,10.90
2019-05-12T00:33:58.871Z,10.90
2019-05-12T00:35:03.554Z,10.90
2019-05-12T00:36:08.092Z,10.90
2019-05-12T00:37:13.229Z,10.90
2019-05-12T00:38:17.740Z,10.90
2019-05-12T00:39:22.831Z,10.90
2019-05-12T00:40:28.047Z,10.90
2019-05-12T00:41:32.827Z,11.00
2019-05-12T00:42:38.178Z,11.00
2019-05-12T00:43:43.161Z,11.00
2019-05-12T00:44:47.938Z,11.00
2019-05-12T00:45:52.731Z,11.00
2019-05-12T00:46:57.704Z,11.00
2019-05-12T00:48:02.525Z,11.00
2019-05-12T00:49:07.983Z,11.00
2019-05-12T00:50:12.923Z,11.00
2019-05-12T00:51:18.101Z,10.90
2019-05-12T00:52:22.899Z,10.90
2019-05-12T00:53:39.395Z,10.90
2019-05-12T00:54:33.827Z,10.90
2019-05-12T00:55:38.600Z,10.90
2019-05-12T00:56:43.357Z,10.90
2019-05-12T00:57:48.473Z,10.80
2019-05-12T00:58:53.417Z,10.80
2019-05-12T00:59:58.238Z,10.80
2019-05-12T01:01:03.296Z,10.80
2019-05-12T01:02:07.996Z,10.80
2019-05-12T01:03:12.781Z,10.80
2019-05-12T01:04:17.605Z,10.80
2019-05-12T01:05:22.674Z,10.80
2019-05-12T01:06:28.315Z,10.80
2019-05-12T01:07:33.174Z,10.80
2019-05-12T01:08:38.414Z,10.80
2019-05-12T01:09:43.286Z,10.70
2019-05-12T01:10:47.973Z,10.70
2019-05-12T01:13:08.490Z,10.70
2019-05-12T01:14:12.851Z,10.70
2019-05-12T01:15:18.526Z,10.70
2019-05-12T01:16:23.373Z,10.60
2019-05-12T01:17:28.289Z,10.60
2019-05-12T01:18:33.059Z,10.60
2019-05-12T01:19:40.396Z,10.60
2019-05-12T01:20:43.973Z,10.60
2019-05-12T01:21:48.429Z,10.60
2019-05-12T01:22:53.199Z,10.60
2019-05-12T01:24:03.302Z,10.60
2019-05-12T01:25:04.115Z,10.60
2019-05-12T01:26:08.887Z,10.60
2019-05-12T01:27:13.643Z,10.60
2019-05-12T01:28:18.418Z,10.60
2019-05-12T01:29:23.301Z,10.60
2019-05-12T01:30:28.406Z,10.60
2019-05-12T01:31:37.810Z,10.60
2019-05-12T01:32:42.285Z,10.70
2019-05-12T01:33:48.592Z,10.60
2019-05-12T01:34:53.183Z,10.60
2019-05-12T01:35:58.634Z,10.60
2019-05-12T01:37:24.906Z,10.60
2019-05-12T01:38:29.381Z,10.60
2019-05-12T01:39:34.005Z,10.60
2019-05-12T01:40:39.942Z,10.60
2019-05-12T01:41:44.552Z,10.60
2019-05-12T01:42:48.969Z,10.60
2019-05-12T01:43:53.519Z,10.60
2019-05-12T01:44:58.468Z,10.60
2019-05-12T01:46:03.214Z,10.60
2019-05-12T01:47:08.363Z,10.60
2019-05-12T01:48:13.312Z,10.60
2019-05-12T01:49:18.634Z,10.70
2019-05-12T01:50:23.605Z,10.60
2019-05-12T01:51:28.440Z,10.60
2019-05-12T01:52:33.399Z,10.60
2019-05-12T01:53:37.949Z,10.60
2019-05-12T01:54:42.751Z,10.60
2019-05-12T01:55:48.563Z,10.50
2019-05-12T01:56:53.753Z,10.50
2019-05-12T01:57:58.302Z,10.60
2019-05-12T01:59:02.905Z,10.50
2019-05-12T02:00:10.039Z,10.50
2019-05-12T02:01:14.750Z,10.50
2019-05-12T02:02:19.143Z,10.60
2019-05-12T02:03:23.977Z,10.60
2019-05-12T02:04:30.997Z,10.60
2019-05-12T02:05:38.064Z,10.60
2019-05-12T02:06:42.485Z,10.60
2019-05-12T02:07:52.401Z,10.60
2019-05-12T02:08:59.624Z,10.60
2019-05-12T02:10:04.857Z,10.50
2019-05-12T02:11:28.921Z,10.60
2019-05-12T02:12:32.999Z,10.60
2019-05-12T02:13:38.092Z,10.60
2019-05-12T02:14:43.291Z,10.50
2019-05-12T02:15:48.594Z,10.60
2019-05-12T02:16:53.291Z,10.60
2019-05-12T02:17:58.895Z,10.50
2019-05-12T02:19:03.505Z,10.60
2019-05-12T02:20:08.781Z,10.50
2019-05-12T02:21:13.225Z,10.50
2019-05-12T02:22:18.952Z,10.50
2019-05-12T02:23:23.521Z,10.50
2019-05-12T02:24:30.593Z,10.50
2019-05-12T02:25:34.203Z,10.60
2019-05-12T02:26:38.916Z,10.50
2019-05-12T02:27:43.345Z,10.50
2019-05-12T02:28:48.178Z,10.60
2019-05-12T02:29:52.799Z,10.60
2019-05-12T02:30:58.955Z,10.60
2019-05-12T02:32:03.661Z,10.60
2019-05-12T02:33:08.193Z,10.60
2019-05-12T02:34:15.780Z,10.60
2019-05-12T02:35:19.044Z,10.60
2019-05-12T02:36:25.861Z,10.50
2019-05-12T02:37:29.868Z,10.60
2019-05-12T02:38:34.127Z,10.60
2019-05-12T02:39:38.857Z,10.60
2019-05-12T02:40:44.857Z,10.60
2019-05-12T02:41:49.739Z,10.60
2019-05-12T02:42:54.818Z,10.60
2019-05-12T02:44:00.097Z,10.60
2019-05-12T02:45:05.783Z,10.50
2019-05-12T02:46:10.475Z,10.50
2019-05-12T02:47:16.146Z,10.50
2019-05-12T02:48:24.354Z,10.50
2019-05-12T02:49:27.253Z,10.50
2019-05-12T02:50:37.508Z,10.50
2019-05-12T02:51:45.540Z,10.50
2019-05-12T02:52:48.993Z,10.50
2019-05-12T02:53:54.784Z,10.50
2019-05-12T02:55:05.455Z,10.50
2019-05-12T02:56:07.982Z,10.50
2019-05-12T02:57:15.131Z,10.50
2019-05-12T02:58:25.216Z,10.50
2019-05-12T02:59:30.227Z,10.50
2019-05-12T03:00:35.505Z,10.50
2019-05-12T03:01:45.109Z,10.60
2019-05-12T03:02:50.102Z,10.50
2019-05-12T03:03:58.841Z,10.50
2019-05-12T03:05:05.583Z,10.50
2019-05-12T03:06:10.436Z,10.50
2019-05-12T03:07:15.471Z,10.40
2019-05-12T03:08:25.624Z,10.40
2019-05-12T03:09:34.940Z,10.40
2019-05-12T03:10:38.164Z,10.40
2019-05-12T03:11:44.821Z,10.40
2019-05-12T03:12:49.689Z,10.40
2019-05-12T03:13:54.872Z,10.40
2019-05-12T03:14:59.830Z,10.40
2019-05-12T03:16:04.885Z,10.40
2019-05-12T03:17:09.973Z,10.40
2019-05-12T03:18:14.814Z,10.40
2019-05-12T03:19:19.902Z,10.40
2019-05-12T03:20:24.393Z,10.40
2019-05-12T03:21:29.004Z,10.30
2019-05-12T03:22:35.378Z,10.40
2019-05-12T03:23:39.577Z,10.30
2019-05-12T03:24:44.885Z,10.40
2019-05-12T03:25:50.288Z,10.30
2019-05-12T03:26:55.428Z,10.30
2019-05-12T03:28:00.220Z,10.40
2019-05-12T03:29:05.900Z,10.30
2019-05-12T03:30:12.534Z,10.30
2019-05-12T03:31:22.891Z,10.30
2019-05-12T03:32:27.608Z,10.30
2019-05-12T03:33:36.076Z,10.30
2019-05-12T03:34:38.230Z,10.30
2019-05-12T03:35:51.772Z,10.30
2019-05-12T03:36:51.191Z,10.30
2019-05-12T03:37:54.935Z,10.30
2019-05-12T03:38:59.690Z,10.30
2019-05-12T03:40:05.560Z,10.30
2019-05-12T03:41:10.229Z,10.20
2019-05-12T03:42:14.654Z,10.20
2019-05-12T03:43:19.584Z,10.30
2019-05-12T03:44:25.155Z,10.20
2019-05-12T03:45:30.149Z,10.20
2019-05-12T03:46:35.364Z,10.20
2019-05-12T03:47:40.429Z,10.20
2019-05-12T03:48:45.522Z,10.20
2019-05-12T03:49:50.520Z,10.30
2019-05-12T03:50:54.751Z,10.30
2019-05-12T03:51:59.418Z,10.30
2019-05-12T03:53:09.469Z,10.20
2019-05-12T03:54:10.407Z,10.20
2019-05-12T03:55:30.728Z,10.20
2019-05-12T03:56:21.222Z,10.20
2019-05-12T03:57:25.569Z,10.20
2019-05-12T03:58:30.352Z,10.10
2019-05-12T03:59:34.895Z,10.00
2019-05-12T04:00:39.797Z,10.10
2019-05-12T04:01:44.985Z,10.10
2019-05-12T04:02:50.180Z,10.10
2019-05-12T04:03:54.431Z,10.10
2019-05-12T04:04:59.295Z,10.10
2019-05-12T04:06:04.778Z,10.10
2019-05-12T04:07:09.679Z,10.00
2019-05-12T04:08:15.764Z,10.10
2019-05-12T04:09:20.480Z,10.00
2019-05-12T04:10:25.041Z,10.00
2019-05-12T04:11:29.793Z,10.10
2019-05-12T04:12:34.744Z,10.10
2019-05-12T04:13:39.657Z,10.10
2019-05-12T04:14:44.921Z,10.10
2019-05-12T04:15:49.726Z,10.10
2019-05-12T04:16:55.154Z,10.10
2019-05-12T04:17:59.899Z,10.10
2019-05-12T04:19:05.349Z,10.00
2019-05-12T04:20:10.290Z,10.00
2019-05-12T04:21:15.752Z,10.00
2019-05-12T04:22:20.743Z,10.00
2019-05-12T04:23:25.206Z,10.00
2019-05-12T04:24:29.984Z,10.00
2019-05-12T04:25:47.685Z,10.00
2019-05-12T04:26:40.758Z,10.00
2019-05-12T04:27:45.247Z,10.10
2019-05-12T04:28:50.072Z,10.10
2019-05-12T04:29:54.776Z,10.10
2019-05-12T04:30:59.568Z,10.00
2019-05-12T04:32:05.084Z,9.90
2019-05-12T04:33:09.978Z,9.90
2019-05-12T04:34:18.963Z,9.90
2019-05-12T04:35:21.197Z,9.90
2019-05-12T04:36:25.506Z,9.90
2019-05-12T04:37:30.253Z,9.90
2019-05-12T04:38:35.541Z,9.90
2019-05-12T04:39:40.457Z,9.90
2019-05-12T04:40:45.360Z,9.90
2019-05-12T04:41:50.193Z,9.90
2019-05-12T04:42:54.979Z,9.90
2019-05-12T04:43:59.897Z,9.90
2019-05-12T04:45:04.660Z,9.90
2019-05-12T04:46:09.763Z,9.90
2019-05-12T04:47:14.740Z,9.80
2019-05-12T04:48:21.478Z,9.90
2019-05-12T04:49:25.704Z,9.90
2019-05-12T04:50:30.538Z,9.90
2019-05-12T04:51:35.359Z,9.90
2019-05-12T04:52:40.372Z,9.90
2019-05-12T04:53:45.039Z,9.90
2019-05-12T04:54:50.132Z,9.80
2019-05-12T04:56:07.564Z,9.80
2019-05-12T04:57:03.956Z,9.80
2019-05-12T04:58:07.067Z,9.90
2019-05-12T04:59:15.330Z,9.80
2019-05-12T05:00:18.173Z,9.80
2019-05-12T05:01:25.320Z,9.90
2019-05-12T05:02:28.958Z,9.90
2019-05-12T05:03:34.965Z,9.90
2019-05-12T05:04:39.758Z,9.80
2019-05-12T05:05:44.791Z,9.70
2019-05-12T05:06:49.356Z,9.70
2019-05-12T05:07:54.993Z,9.70
2019-05-12T05:08:59.430Z,9.70
2019-05-12T05:10:04.850Z,9.70
2019-05-12T05:11:09.278Z,9.80
2019-05-12T05:12:14.196Z,9.80
2019-05-12T05:13:18.519Z,9.70
2019-05-12T05:14:24.805Z,9.70
2019-05-12T05:15:29.549Z,9.70
2019-05-12T05:16:34.833Z,9.80
2019-05-12T05:17:39.364Z,9.70
2019-05-12T05:18:44.328Z,9.70
2019-05-12T05:19:48.775Z,9.70
2019-05-12T05:20:54.179Z,9.70
2019-05-12T05:21:58.695Z,9.70
2019-05-12T05:23:04.152Z,9.80
2019-05-12T05:24:08.707Z,9.80
2019-05-12T05:25:14.495Z,9.80
2019-05-12T05:26:24.514Z,9.70
2019-05-12T05:27:25.679Z,9.70
2019-05-12T05:28:30.222Z,9.70
2019-05-12T05:29:37.160Z,9.70
2019-05-12T05:30:41.287Z,9.70
2019-05-12T05:31:46.107Z,9.70
2019-05-12T05:32:50.343Z,9.70
2019-05-12T05:33:55.293Z,9.70
2019-05-12T05:34:59.667Z,9.70
2019-05-12T05:36:08.978Z,9.70
2019-05-12T05:37:10.513Z,9.70
2019-05-12T05:38:20.572Z,9.70
2019-05-12T05:39:21.316Z,9.70
2019-05-12T05:40:30.270Z,9.70
2019-05-12T05:41:34.389Z,9.70
2019-05-12T05:42:38.771Z,9.70
2019-05-12T05:43:43.775Z,9.70
2019-05-12T05:44:48.807Z,9.70
2019-05-12T05:45:56.150Z,9.70
2019-05-12T05:46:59.695Z,9.70
2019-05-12T05:48:05.445Z,9.80
2019-05-12T05:49:10.647Z,9.80
2019-05-12T05:50:18.405Z,9.80
2019-05-12T05:51:23.708Z,9.70
2019-05-12T05:52:33.239Z,9.70
2019-05-12T05:53:34.199Z,9.80
2019-05-12T05:54:40.172Z,9.80
2019-05-12T05:55:44.883Z,9.80
2019-05-12T05:56:58.162Z,9.70
2019-05-12T05:57:59.784Z,9.80
2019-05-12T05:59:04.518Z,9.80
2019-05-12T06:00:17.281Z,9.80
2019-05-12T06:01:16.078Z,9.70
2019-05-12T06:02:25.414Z,9.70
2019-05-12T06:03:28.018Z,9.70
2019-05-12T06:04:34.129Z,9.70
2019-05-12T06:05:38.883Z,9.80
2019-05-12T06:06:50.793Z,9.70
2019-05-12T06:07:49.811Z,9.80
2019-05-12T06:09:03.492Z,9.70
2019-05-12T06:10:08.245Z,9.70
2019-05-12T06:11:16.902Z,9.80
2019-05-12T06:12:19.108Z,9.80
2019-05-12T06:13:27.369Z,9.80
2019-05-12T06:14:30.385Z,9.80
2019-05-12T06:15:40.381Z,9.90
2019-05-12T06:16:43.238Z,9.80
2019-05-12T06:17:47.984Z,9.80
2019-05-12T06:18:54.386Z,9.80
2019-05-12T06:19:58.760Z,9.90
2019-05-12T06:21:03.566Z,9.90
2019-05-12T06:22:09.034Z,9.90
2019-05-12T06:23:15.057Z,9.90
2019-05-12T06:24:20.337Z,9.90
2019-05-12T06:25:26.524Z,9.90
2019-05-12T06:26:35.394Z,10.00
2019-05-12T06:27:37.176Z,10.00
2019-05-12T06:28:44.000Z,10.00
2019-05-12T06:29:52.503Z,10.00
2019-05-12T06:30:56.635Z,10.00
2019-05-12T06:32:06.293Z,10.00
2019-05-12T06:33:07.385Z,10.00
2019-05-12T06:34:15.512Z,10.00
2019-05-12T06:35:18.304Z,10.00
2019-05-12T06:36:27.106Z,10.00
2019-05-12T06:37:29.204Z,10.00
2019-05-12T06:38:37.187Z,10.00
2019-05-12T06:39:40.595Z,10.00
2019-05-12T06:40:45.589Z,10.00
2019-05-12T06:41:53.139Z,10.00
2019-05-12T06:42:57.242Z,10.00
2019-05-12T06:44:03.701Z,10.10
2019-05-12T06:45:08.569Z,10.10
2019-05-12T06:46:20.300Z,10.10
2019-05-12T06:47:19.606Z,10.10
2019-05-12T06:48:29.928Z,10.10
2019-05-12T06:49:30.697Z,10.10
2019-05-12T06:50:39.162Z,10.10
2019-05-12T06:51:44.310Z,10.20
2019-05-12T06:52:49.092Z,10.10
2019-05-12T06:53:53.577Z,10.20
2019-05-12T06:54:58.559Z,10.20
2019-05-12T06:56:04.447Z,10.10
2019-05-12T06:57:20.677Z,10.10
2019-05-12T06:58:26.264Z,10.10
2019-05-12T06:59:23.762Z,10.10
2019-05-12T07:00:30.841Z,10.10
2019-05-12T07:01:34.470Z,10.20
2019-05-12T07:02:49.042Z,10.20
2019-05-12T07:03:45.248Z,10.20
2019-05-12T07:04:56.336Z,10.30
2019-05-12T07:05:55.999Z,10.30
2019-05-12T07:07:00.822Z,10.20
2019-05-12T07:08:05.760Z,10.20
2019-05-12T07:09:15.580Z,10.20
2019-05-12T07:10:35.651Z,10.20
2019-05-12T07:11:24.305Z,10.20
2019-05-12T07:12:36.514Z,10.20
2019-05-12T07:13:35.104Z,10.30
2019-05-12T07:14:40.046Z,10.30
2019-05-12T07:15:44.383Z,10.30
2019-05-12T07:16:55.178Z,10.30
2019-05-12T07:18:07.268Z,10.30
2019-05-12T07:19:17.259Z,10.30
2019-05-12T07:20:18.038Z,10.30
2019-05-12T07:21:24.838Z,10.20
2019-05-12T07:22:31.870Z,10.30
2019-05-12T07:23:35.309Z,10.30
2019-05-12T07:24:41.067Z,10.30
2019-05-12T07:25:46.227Z,10.30
2019-05-12T07:26:54.441Z,10.30
2019-05-12T07:28:00.694Z,10.40
2019-05-12T07:29:04.454Z,10.30
2019-05-12T07:30:09.619Z,10.30
2019-05-12T07:31:14.315Z,10.40
2019-05-12T07:32:22.327Z,10.40
2019-05-12T07:33:26.004Z,10.40
2019-05-12T07:34:33.301Z,10.40
2019-05-12T07:35:37.468Z,10.40
2019-05-12T07:36:44.303Z,10.50
2019-05-12T07:37:49.164Z,10.40
2019-05-12T07:39:03.783Z,10.50
2019-05-12T07:40:04.651Z,10.50
2019-05-12T07:41:11.002Z,10.50
2019-05-12T07:42:16.087Z,10.60
2019-05-12T07:43:24.271Z,10.60
2019-05-12T07:44:32.091Z,10.60
2019-05-12T07:45:36.423Z,10.60
2019-05-12T07:46:47.766Z,10.60
2019-05-12T07:47:47.223Z,10.60
2019-05-12T07:48:51.509Z,10.60
2019-05-12T07:49:56.409Z,10.60
2019-05-12T07:51:00.891Z,10.60
2019-05-12T07:52:05.782Z,10.60
2019-05-12T07:53:10.037Z,10.60
2019-05-12T07:54:14.951Z,10.60
2019-05-12T07:55:19.224Z,10.60
2019-05-12T07:56:26.011Z,10.60
2019-05-12T07:57:30.051Z,10.70
2019-05-12T07:58:34.794Z,10.70
2019-05-12T07:59:41.048Z,10.70
2019-05-12T08:00:45.557Z,10.80
2019-05-12T08:01:52.132Z,10.80
2019-05-12T08:02:56.290Z,10.80
2019-05-12T08:04:01.509Z,10.80
2019-05-12T08:05:11.027Z,10.90
2019-05-12T08:06:14.190Z,10.90
2019-05-12T08:07:19.929Z,10.90
2019-05-12T08:08:24.545Z,10.80
2019-05-12T08:09:32.266Z,10.80
2019-05-12T08:10:35.346Z,10.90
2019-05-12T08:11:40.193Z,10.80
2019-05-12T08:12:44.646Z,10.80
2019-05-12T08:13:49.447Z,10.80
2019-05-12T08:14:54.201Z,10.80
2019-05-12T08:15:59.023Z,10.90
2019-05-12T08:17:11.157Z,10.90
2019-05-12T08:18:10.579Z,10.90
2019-05-12T08:19:23.592Z,10.90
2019-05-12T08:20:21.259Z,10.90
2019-05-12T08:21:25.565Z,11.00
2019-05-12T08:22:30.444Z,11.00
2019-05-12T08:23:37.771Z,11.00
2019-05-12T08:24:42.995Z,11.00
2019-05-12T08:25:47.275Z,11.00
2019-05-12T08:26:59.724Z,11.00
2019-05-12T08:28:11.123Z,10.90
2019-05-12T08:29:04.704Z,11.00
2019-05-12T08:30:10.452Z,11.00
2019-05-12T08:31:15.319Z,11.00
2019-05-12T08:32:20.325Z,11.00
2019-05-12T08:33:26.113Z,11.10
2019-05-12T08:34:30.475Z,11.10
2019-05-12T08:35:38.269Z,11.10
2019-05-12T08:36:45.083Z,11.20
2019-05-12T08:37:47.931Z,11.20
2019-05-12T08:38:53.640Z,11.20
2019-05-12T08:40:03.303Z,11.20
2019-05-12T08:41:04.892Z,11.20
2019-05-12T08:42:09.706Z,11.20
2019-05-12T08:43:14.941Z,11.30
2019-05-12T08:44:24.563Z,11.30
2019-05-12T08:45:33.669Z,11.30
2019-05-12T08:46:34.368Z,11.40
2019-05-12T08:47:39.062Z,11.40
2019-05-12T08:48:44.647Z,11.50
2019-05-12T08:49:55.446Z,11.50
2019-05-12T08:50:55.678Z,11.50
2019-05-12T08:52:00.419Z,11.50
2019-05-12T08:53:05.341Z,11.50
2019-05-12T08:54:09.657Z,11.50
2019-05-12T08:55:16.798Z,11.60
2019-05-12T08:56:23.988Z,11.60
2019-05-12T08:57:34.925Z,11.60
2019-05-12T08:58:46.722Z,11.60
2019-05-12T08:59:40.165Z,11.60
2019-05-12T09:00:48.312Z,11.60
2019-05-12T09:01:51.137Z,11.60
2019-05-12T09:02:55.367Z,11.60
2019-05-12T09:04:05.416Z,11.60
2019-05-12T09:05:06.307Z,11.60
2019-05-12T09:06:15.595Z,11.60
2019-05-12T09:07:17.719Z,11.70
2019-05-12T09:08:24.269Z,11.70
2019-05-12T09:09:28.929Z,11.70
2019-05-12T09:10:34.378Z,11.70
2019-05-12T09:11:38.891Z,11.70
2019-05-12T09:12:44.290Z,11.70
2019-05-12T09:13:52.542Z,11.60
2019-05-12T09:14:55.380Z,11.70
2019-05-12T09:15:59.589Z,11.80
2019-05-12T09:17:07.103Z,11.80
2019-05-12T09:18:10.471Z,11.80
2019-05-12T09:19:20.333Z,11.80
2019-05-12T09:20:21.403Z,11.80
2019-05-12T09:21:31.541Z,11.80
2019-05-12T09:22:34.306Z,11.80
2019-05-12T09:23:40.967Z,11.90
2019-05-12T09:24:44.927Z,11.90
2019-05-12T09:25:49.643Z,11.90
2019-05-12T09:26:53.991Z,11.90
2019-05-12T09:27:58.922Z,12.00
2019-05-12T09:29:03.636Z,12.00
2019-05-12T09:30:09.793Z,12.00
2019-05-12T09:31:14.272Z,12.00
2019-05-12T09:32:19.096Z,12.10
2019-05-12T09:33:29.634Z,12.10
2019-05-12T09:34:30.263Z,12.10
2019-05-12T09:35:39.072Z,12.10
2019-05-12T09:36:40.986Z,12.10
2019-05-12T09:37:45.374Z,12.10
2019-05-12T09:38:53.712Z,12.10
2019-05-12T09:39:56.265Z,12.00
2019-05-12T09:41:02.471Z,12.00
2019-05-12T09:42:07.215Z,12.00
2019-05-12T09:43:13.673Z,12.00
2019-05-12T09:44:23.695Z,12.00
2019-05-12T09:45:24.956Z,12.00
2019-05-12T09:46:34.432Z,11.90
2019-05-12T09:47:35.847Z,12.00
2019-05-12T09:48:46.881Z,12.00
2019-05-12T09:49:46.885Z,12.00
2019-05-12T09:50:51.501Z,11.90
2019-05-12T09:51:58.373Z,11.90
2019-05-12T09:53:09.301Z,11.90
2019-05-12T09:54:08.920Z,11.90
2019-05-12T09:55:14.800Z,11.90
2019-05-12T09:56:19.901Z,11.90
2019-05-12T09:57:24.153Z,11.90
2019-05-12T09:58:28.906Z,11.90
2019-05-12T09:59:33.612Z,11.90
2019-05-12T10:00:38.676Z,11.90
2019-05-12T10:01:45.794Z,11.90
2019-05-12T10:02:51.201Z,11.90
2019-05-12T10:03:55.653Z,11.90
2019-05-12T10:05:01.114Z,11.90
2019-05-12T10:06:06.006Z,11.90
2019-05-12T10:07:10.796Z,11.90
2019-05-12T10:08:15.171Z,11.90
2019-05-12T10:09:20.188Z,11.80
2019-05-12T10:10:29.081Z,11.90
2019-05-12T10:11:31.239Z,11.90
2019-05-12T10:12:44.665Z,11.90
2019-05-12T10:13:41.917Z,11.90
2019-05-12T10:14:47.220Z,11.90
2019-05-12T10:15:53.548Z,11.90
2019-05-12T10:16:57.904Z,12.00
2019-05-12T10:18:06.344Z,12.00
2019-05-12T10:19:08.916Z,12.00
2019-05-12T10:20:13.865Z,12.00
2019-05-12T10:21:18.222Z,12.00
2019-05-12T10:22:24.341Z,12.00
2019-05-12T10:23:28.485Z,12.00
2019-05-12T10:24:41.507Z,12.00
2019-05-12T10:25:39.681Z,12.00
2019-05-12T10:26:48.767Z,12.00
2019-05-12T10:27:50.572Z,12.00
2019-05-12T10:28:58.170Z,12.00
2019-05-12T10:30:03.261Z,12.00
2019-05-12T10:31:08.208Z,12.00
2019-05-12T10:32:13.360Z,12.00
2019-05-12T10:33:18.233Z,12.00
2019-05-12T10:34:24.004Z,12.00
2019-05-12T10:35:29.102Z,12.00
2019-05-12T10:36:33.977Z,12.00
2019-05-12T10:37:39.009Z,12.00
2019-05-12T10:38:43.511Z,12.00
2019-05-12T10:39:48.370Z,12.10
2019-05-12T10:40:52.606Z,12.00
2019-05-12T10:41:57.527Z,12.00
2019-05-12T10:43:04.148Z,12.10
2019-05-12T10:44:08.221Z,12.10
2019-05-12T10:45:17.046Z,12.10
2019-05-12T10:46:26.835Z,12.10
2019-05-12T10:47:25.967Z,12.10
2019-05-12T10:48:30.662Z,12.20
2019-05-12T10:49:34.919Z,12.10
2019-05-12T10:50:39.738Z,12.20
2019-05-12T10:51:47.432Z,12.20
2019-05-12T10:52:50.516Z,12.10
2019-05-12T10:53:58.317Z,12.20
2019-05-12T10:55:01.175Z,12.20
2019-05-12T10:56:05.586Z,12.20
2019-05-12T10:57:10.406Z,12.20
2019-05-12T10:58:14.796Z,12.20
2019-05-12T10:59:30.238Z,12.20
2019-05-12T11:00:26.926Z,12.20
2019-05-12T11:01:32.141Z,12.30
2019-05-12T11:02:36.432Z,12.30
2019-05-12T11:03:42.907Z,12.30
2019-05-12T11:04:47.599Z,12.30
2019-05-12T11:05:56.685Z,12.30
2019-05-12T11:06:58.478Z,12.30
2019-05-12T11:08:06.394Z,12.40
2019-05-12T11:09:09.585Z,12.40
2019-05-12T11:10:19.649Z,12.40
2019-05-12T11:11:20.719Z,12.30
2019-05-12T11:12:29.105Z,12.40
2019-05-12T11:13:33.690Z,12.40
2019-05-12T11:14:38.169Z,12.40
2019-05-12T11:15:46.173Z,12.40
2019-05-12T11:16:50.025Z,12.40
2019-05-12T11:18:30.115Z,12.40
2019-05-12T11:19:33.558Z,12.40
2019-05-12T11:20:37.791Z,12.50
2019-05-12T11:21:44.162Z,12.60
2019-05-12T11:22:48.427Z,12.70
2019-05-12T11:23:54.435Z,12.70
2019-05-12T11:24:59.203Z,12.70
2019-05-12T11:26:03.969Z,12.80
2019-05-12T11:27:08.973Z,12.70
2019-05-12T11:28:14.011Z,12.70
2019-05-12T11:29:18.938Z,12.60
2019-05-12T11:30:23.779Z,12.60
2019-05-12T11:31:28.670Z,12.70
2019-05-12T11:32:34.861Z,12.60
2019-05-12T11:33:39.651Z,12.60
2019-05-12T11:34:44.517Z,12.60
2019-05-12T11:35:51.200Z,12.60
2019-05-12T11:36:55.365Z,12.70
2019-05-12T11:38:00.245Z,12.70
2019-05-12T11:39:06.771Z,12.70
2019-05-12T11:40:13.166Z,12.80
2019-05-12T11:41:20.233Z,12.80
2019-05-12T11:42:24.573Z,12.90
2019-05-12T11:43:29.814Z,13.00
2019-05-12T11:44:34.972Z,13.00
2019-05-12T11:45:39.234Z,13.00
2019-05-12T11:46:44.282Z,13.00
2019-05-12T11:47:48.615Z,13.00
2019-05-12T11:48:53.834Z,13.00
2019-05-12T11:50:03.442Z,13.00
2019-05-12T11:51:05.251Z,13.00
2019-05-12T11:52:15.458Z,13.00
2019-05-12T11:53:16.324Z,12.90
2019-05-12T11:54:20.695Z,12.90
2019-05-12T11:55:29.382Z,12.90
2019-05-12T11:56:33.459Z,12.90
2019-05-12T11:57:38.014Z,13.00
2019-05-12T11:58:47.412Z,13.00
2019-05-12T11:59:59.061Z,13.00
2019-05-12T12:00:58.646Z,13.00
2019-05-12T12:02:03.368Z,13.00
2019-05-12T12:03:17.884Z,13.00
2019-05-12T12:04:14.603Z,12.90
2019-05-12T12:05:18.767Z,12.90
2019-05-12T12:06:24.076Z,12.90
2019-05-12T12:07:28.365Z,12.90
2019-05-12T12:08:37.085Z,12.80
2019-05-12T12:09:39.609Z,12.80
2019-05-12T12:10:44.648Z,12.80
2019-05-12T12:11:48.865Z,12.70
2019-05-12T12:12:54.002Z,12.70
2019-05-12T12:14:00.373Z,12.70
2019-05-12T12:15:05.663Z,12.60
2019-05-12T12:16:11.465Z,12.60
2019-05-12T12:17:16.779Z,12.60
2019-05-12T12:18:22.967Z,12.50
2019-05-12T12:19:35.028Z,12.60
2019-05-12T12:20:33.861Z,12.60
2019-05-12T12:21:40.413Z,12.50
2019-05-12T12:22:47.097Z,12.50
2019-05-12T12:23:53.480Z,12.50
2019-05-12T12:25:05.084Z,12.60
2019-05-12T12:26:04.699Z,12.60
2019-05-12T12:27:09.011Z,12.60
2019-05-12T12:28:13.801Z,12.70
2019-05-12T12:29:18.147Z,12.70
2019-05-12T12:30:23.712Z,12.60
2019-05-12T12:31:35.562Z,12.60
2019-05-12T12:32:36.619Z,12.60
2019-05-12T12:33:46.812Z,12.60
2019-05-12T12:34:47.495Z,12.60
2019-05-12T12:35:56.577Z,12.60
2019-05-12T12:36:58.515Z,12.60
2019-05-12T12:38:03.932Z,12.60
2019-05-12T12:39:08.788Z,12.60
2019-05-12T12:40:14.375Z,12.60
2019-05-12T12:41:19.053Z,12.50
2019-05-12T12:42:24.173Z,12.50
2019-05-12T12:43:28.674Z,12.50
2019-05-12T12:44:34.078Z,12.50
2019-05-12T12:45:58.769Z,12.60
2019-05-12T12:47:03.309Z,12.60
2019-05-12T12:48:07.818Z,12.70
2019-05-12T12:49:13.920Z,12.70
2019-05-12T12:50:20.251Z,12.70
2019-05-12T12:51:25.423Z,12.70
2019-05-12T12:52:29.796Z,12.70
2019-05-12T12:53:34.523Z,12.60
2019-05-12T12:54:39.212Z,12.70
2019-05-12T12:55:45.179Z,12.70
2019-05-12T12:56:49.881Z,12.60
2019-05-12T12:57:54.642Z,12.70
2019-05-12T12:59:01.812Z,12.60
2019-05-12T13:00:32.286Z,12.60
2019-05-12T13:01:33.534Z,12.60
2019-05-12T13:02:44.148Z,12.70
2019-05-12T13:03:45.314Z,12.70
2019-05-12T13:04:50.514Z,12.60
2019-05-12T13:05:55.289Z,12.60
2019-05-12T13:06:59.915Z,12.60
2019-05-12T13:08:04.429Z,12.60
2019-05-12T13:09:18.408Z,12.60
2019-05-12T13:10:16.019Z,12.60
2019-05-12T13:11:30.451Z,12.70
2019-05-12T13:12:26.975Z,12.70
2019-05-12T13:13:31.677Z,12.70
2019-05-12T13:14:38.323Z,12.70
2019-05-12T13:15:44.412Z,12.80
2019-05-12T13:16:49.343Z,12.80
2019-05-12T13:17:55.205Z,12.80
2019-05-12T13:19:06.127Z,12.80
2019-05-12T13:20:06.592Z,12.80
2019-05-12T13:21:13.687Z,12.80
2019-05-12T13:22:19.129Z,12.80
2019-05-12T13:23:36.689Z,12.90
2019-05-12T13:24:30.288Z,12.90
2019-05-12T13:25:38.878Z,12.90
2019-05-12T13:26:43.529Z,12.90
2019-05-12T13:27:47.922Z,12.80
2019-05-12T13:28:53.504Z,12.80
2019-05-12T13:30:01.767Z,12.80
2019-05-12T13:31:13.090Z,12.90
2019-05-12T13:32:11.143Z,12.80
2019-05-12T13:33:18.289Z,12.90
2019-05-12T13:34:23.716Z,12.80
2019-05-12T13:35:28.500Z,12.80
2019-05-12T13:36:35.422Z,12.80
2019-05-12T13:37:39.529Z,12.80
2019-05-12T13:38:44.316Z,12.80
2019-05-12T13:39:57.002Z,12.80
2019-05-12T13:40:55.241Z,12.80
2019-05-12T13:42:00.459Z,12.80
2019-05-12T13:43:09.084Z,12.80
2019-05-12T13:44:13.696Z,12.80
2019-05-12T13:45:18.009Z,12.80
2019-05-12T13:46:23.932Z,12.70
2019-05-12T13:47:28.986Z,12.70
2019-05-12T13:48:34.877Z,12.80
2019-05-12T13:49:44.126Z,12.80
2019-05-12T13:50:45.824Z,12.80
2019-05-12T13:51:50.407Z,12.80
2019-05-12T13:52:55.211Z,12.80
2019-05-12T13:53:59.533Z,12.80
2019-05-12T13:55:05.684Z,12.80
2019-05-12T13:56:10.391Z,12.80
2019-05-12T13:57:15.073Z,12.80
2019-05-12T13:58:19.647Z,12.80
2019-05-12T13:59:25.498Z,12.70
2019-05-12T14:00:30.149Z,12.70
2019-05-12T14:01:40.098Z,12.70
2019-05-12T14:02:41.072Z,12.70
2019-05-12T14:03:50.549Z,12.60
2019-05-12T14:04:53.611Z,12.60
2019-05-12T14:05:58.505Z,12.60
2019-05-12T14:07:03.941Z,12.60
2019-05-12T14:08:08.935Z,12.60
2019-05-12T14:09:13.733Z,12.60